createdAt,value
2017-09-17T00:00:24.068Z,12.18
2017-09-17T00:01:24.590Z,12.2
2017-09-17T00:02:24.269Z,12.15
2017-09-17T00:03:24.580Z,12.11
2017-09-17T00:04:24.570Z,12.1
2017-09-17T00:05:23.937Z,12.14
2017-09-17T00:06:24.245Z,12.08
2017-09-17T00:07:24.028Z,12.14
2017-09-17T00:08:24.655Z,12.15
2017-09-17T00:09:24.234Z,12.14
2017-09-17T00:10:24.225Z,12.14
2017-09-17T00:11:24.220Z,12.11
2017-09-17T00:12:23.899Z,12.17
2017-09-17T00:13:24.521Z,12.14
2017-09-17T00:14:24.614Z,12.17
2017-09-17T00:15:24.508Z,12.12
2017-09-17T00:16:24.613Z,12
2017-09-17T00:17:24.601Z,12.12
2017-09-17T00:18:24.281Z,11.99
2017-09-17T00:19:24.172Z,11.99
2017-09-17T00:20:24.480Z,12.03
2017-09-17T00:21:24.484Z,11.97
2017-09-17T00:22:23.944Z,12.03
2017-09-17T00:23:23.836Z,11.95
2017-09-17T00:24:24.464Z,11.97
2017-09-17T00:25:23.825Z,11.97
2017-09-17T00:26:23.821Z,12
2017-09-17T00:27:24.224Z,12.08
2017-09-17T00:28:24.126Z,12.07
2017-09-17T00:29:24.455Z,12
2017-09-17T00:30:24.108Z,12
2017-09-17T00:31:24.418Z,12.03
2017-09-17T00:32:24.612Z,11.95
2017-09-17T00:33:24.407Z,11.96
2017-09-17T00:34:23.875Z,12
2017-09-17T00:35:24.393Z,11.99
2017-09-17T00:36:24.389Z,11.97
2017-09-17T00:37:23.855Z,11.89
2017-09-17T00:38:23.850Z,11.86
2017-09-17T00:39:24.372Z,11.8
2017-09-17T00:40:24.369Z,11.77
2017-09-17T00:41:24.051Z,11.73
2017-09-17T00:42:24.048Z,11.68
2017-09-17T00:43:23.732Z,11.67
2017-09-17T00:44:24.537Z,11.7
2017-09-17T00:45:23.808Z,11.59
2017-09-17T00:46:24.335Z,11.68
2017-09-17T00:47:24.019Z,11.63
2017-09-17T00:48:24.012Z,11.52
2017-09-17T00:49:24.314Z,11.44
2017-09-17T00:50:23.996Z,11.38
2017-09-17T00:51:24.398Z,11.3
2017-09-17T00:52:23.671Z,11.33
2017-09-17T00:53:24.079Z,11.34
2017-09-17T00:54:24.287Z,11.22
2017-09-17T00:55:23.966Z,11.16
2017-09-17T00:56:24.377Z,11.08
2017-09-17T00:57:23.957Z,11.16
2017-09-17T00:58:23.947Z,11.15
2017-09-17T00:59:23.943Z,11.2
2017-09-17T01:00:23.938Z,11.23
2017-09-17T01:01:24.034Z,11.23
2017-09-17T01:02:23.929Z,11.23
2017-09-17T01:03:23.919Z,11.26
2017-09-17T01:04:23.942Z,11.33
2017-09-17T01:05:24.223Z,11.38
2017-09-17T01:06:24.057Z,11.44
2017-09-17T01:07:24.103Z,11.33
2017-09-17T01:08:23.581Z,11.4
2017-09-17T01:09:24.200Z,11.44
2017-09-17T01:10:23.879Z,11.37
2017-09-17T01:11:24.439Z,11.55
2017-09-17T01:12:24.019Z,11.43
2017-09-17T01:13:23.865Z,11.43
2017-09-17T01:14:24.169Z,11.49
2017-09-17T01:15:23.536Z,11.43
2017-09-17T01:16:23.845Z,11.31
2017-09-17T01:17:23.937Z,11.35
2017-09-17T01:18:23.622Z,11.43
2017-09-17T01:19:23.515Z,11.41
2017-09-17T01:20:24.144Z,11.48
2017-09-17T01:21:23.816Z,11.37
2017-09-17T01:22:23.814Z,11.45
2017-09-17T01:23:23.804Z,11.35
2017-09-17T01:24:24.115Z,11.4
2017-09-17T01:25:23.800Z,11.37
2017-09-17T01:26:23.791Z,11.53
2017-09-17T01:27:23.467Z,11.51
2017-09-17T01:28:23.785Z,11.59
2017-09-17T01:29:24.081Z,11.56
2017-09-17T01:30:23.762Z,11.51
2017-09-17T01:31:24.173Z,11.59
2017-09-17T01:32:23.753Z,11.58
2017-09-17T01:33:23.771Z,11.6
2017-09-17T01:34:23.429Z,11.6
2017-09-17T01:35:23.422Z,11.6
2017-09-17T01:36:23.727Z,11.55
2017-09-17T01:37:23.725Z,11.58
2017-09-17T01:38:24.034Z,11.58
2017-09-17T01:39:23.715Z,11.52
2017-09-17T01:40:23.809Z,11.53
2017-09-17T01:41:24.013Z,11.52
2017-09-17T01:42:23.380Z,11.51
2017-09-17T01:43:24.020Z,11.52
2017-09-17T01:44:23.992Z,11.45
2017-09-17T01:45:23.678Z,11.53
2017-09-17T01:46:24.236Z,11.34
2017-09-17T01:47:23.663Z,11.31
2017-09-17T01:48:23.973Z,11.27
2017-09-17T01:49:23.968Z,11.25
2017-09-17T01:50:23.650Z,11.31
2017-09-17T01:51:23.742Z,11.26
2017-09-17T01:52:23.637Z,11.27
2017-09-17T01:53:23.631Z,11.15
2017-09-17T01:54:23.622Z,11.1
2017-09-17T01:55:23.307Z,11.12
2017-09-17T01:56:23.715Z,11.13
2017-09-17T01:57:23.919Z,11.16
2017-09-17T01:58:23.916Z,11.18
2017-09-17T01:59:24.015Z,11.1
2017-09-17T02:00:23.591Z,11.1
2017-09-17T02:01:23.591Z,11.13
2017-09-17T02:02:23.576Z,11.22
2017-09-17T02:03:23.356Z,11.15
2017-09-17T02:04:23.568Z,11.19
2017-09-17T02:05:23.875Z,11.2
2017-09-17T02:06:23.242Z,11.16
2017-09-17T02:07:23.869Z,11.33
2017-09-17T02:08:23.539Z,11.33
2017-09-17T02:09:23.322Z,11.33
2017-09-17T02:10:23.844Z,11.26
2017-09-17T02:11:23.212Z,11.25
2017-09-17T02:12:23.828Z,11.2
2017-09-17T02:13:23.515Z,11.2
2017-09-17T02:14:23.293Z,11.12
2017-09-17T02:15:23.504Z,11.1
2017-09-17T02:16:23.811Z,11.08
2017-09-17T02:17:23.903Z,11.19
2017-09-17T02:18:23.481Z,11.1
2017-09-17T02:19:23.889Z,11.12
2017-09-17T02:20:23.572Z,11.16
2017-09-17T02:21:23.154Z,11.08
2017-09-17T02:22:23.459Z,11.12
2017-09-17T02:23:23.457Z,11.2
2017-09-17T02:24:23.137Z,11.13
2017-09-17T02:25:23.442Z,11.16
2017-09-17T02:26:23.437Z,11.16
2017-09-17T02:27:23.117Z,11.18
2017-09-17T02:28:23.424Z,11.04
2017-09-17T02:29:23.424Z,11.04
2017-09-17T02:30:23.101Z,11.04
2017-09-17T02:31:23.442Z,11.08
2017-09-17T02:32:23.504Z,11.12
2017-09-17T02:33:23.083Z,11.16
2017-09-17T02:34:23.176Z,11.05
2017-09-17T02:35:23.071Z,11.04
2017-09-17T02:36:23.378Z,11.07
2017-09-17T02:37:23.057Z,11.05
2017-09-17T02:38:23.053Z,10.98
2017-09-17T02:39:23.361Z,10.95
2017-09-17T02:40:23.354Z,10.98
2017-09-17T02:41:23.348Z,10.87
2017-09-17T02:42:23.665Z,10.97
2017-09-17T02:43:23.659Z,10.95
2017-09-17T02:44:23.336Z,10.95
2017-09-17T02:45:23.331Z,10.9
2017-09-17T02:46:23.633Z,11.01
2017-09-17T02:47:23.621Z,10.94
2017-09-17T02:48:23.621Z,11.07
2017-09-17T02:49:23.621Z,10.98
2017-09-17T02:50:23.394Z,10.97
2017-09-17T02:51:23.642Z,10.95
2017-09-17T02:52:23.595Z,10.87
2017-09-17T02:53:23.590Z,10.8
2017-09-17T02:54:23.275Z,10.89
2017-09-17T02:55:23.056Z,10.86
2017-09-17T02:56:23.261Z,10.87
2017-09-17T02:57:23.667Z,10.76
2017-09-17T02:58:23.249Z,10.8
2017-09-17T02:59:22.930Z,10.86
2017-09-17T03:00:23.551Z,10.86
2017-09-17T03:01:23.554Z,10.8
2017-09-17T03:02:23.328Z,10.8
2017-09-17T03:03:23.217Z,10.87
2017-09-17T03:04:23.209Z,10.82
2017-09-17T03:05:23.208Z,10.79
2017-09-17T03:06:23.202Z,10.86
2017-09-17T03:07:23.196Z,10.77
2017-09-17T03:08:23.499Z,10.86
2017-09-17T03:09:23.600Z,10.84
2017-09-17T03:10:23.179Z,10.86
2017-09-17T03:11:23.180Z,10.84
2017-09-17T03:12:23.165Z,10.84
2017-09-17T03:13:22.844Z,10.86
2017-09-17T03:14:23.255Z,10.83
2017-09-17T03:15:23.146Z,10.86
2017-09-17T03:16:23.141Z,10.82
2017-09-17T03:17:23.453Z,10.83
2017-09-17T03:18:22.815Z,10.9
2017-09-17T03:19:22.910Z,10.79
2017-09-17T03:20:23.212Z,10.8
2017-09-17T03:21:22.899Z,10.77
2017-09-17T03:22:23.107Z,10.71
2017-09-17T03:23:22.786Z,10.8
2017-09-17T03:24:23.193Z,10.84
2017-09-17T03:25:23.086Z,10.94
2017-09-17T03:26:23.084Z,10.97
2017-09-17T03:27:23.275Z,11.02
2017-09-17T03:28:22.755Z,11.07
2017-09-17T03:29:23.066Z,11.05
2017-09-17T03:30:23.058Z,10.89
2017-09-17T03:31:23.053Z,10.9
2017-09-17T03:32:23.197Z,10.89
2017-09-17T03:33:23.355Z,10.84
2017-09-17T03:34:23.034Z,10.87
2017-09-17T03:35:22.717Z,10.76
2017-09-17T03:36:23.023Z,10.77
2017-09-17T03:37:23.338Z,10.76
2017-09-17T03:38:23.320Z,10.69
2017-09-17T03:39:23.001Z,10.68
2017-09-17T03:40:22.784Z,10.75
2017-09-17T03:41:22.993Z,10.68
2017-09-17T03:42:22.672Z,10.67
2017-09-17T03:43:23.393Z,10.65
2017-09-17T03:44:22.973Z,10.69
2017-09-17T03:45:23.066Z,10.53
2017-09-17T03:46:23.274Z,10.59
2017-09-17T03:47:23.275Z,10.48
2017-09-17T03:48:23.262Z,10.55
2017-09-17T03:49:22.727Z,10.41
2017-09-17T03:50:22.939Z,10.28
2017-09-17T03:51:23.252Z,10.18
2017-09-17T03:52:22.922Z,10.06
2017-09-17T03:53:23.228Z,10.06
2017-09-17T03:54:23.236Z,10.06
2017-09-17T03:55:22.909Z,9.94
2017-09-17T03:56:22.902Z,10.02
2017-09-17T03:57:22.579Z,9.95
2017-09-17T03:58:22.890Z,9.84
2017-09-17T03:59:22.983Z,9.87
2017-09-17T04:00:23.196Z,9.92
2017-09-17T04:01:22.556Z,9.97
2017-09-17T04:02:22.968Z,9.99
2017-09-17T04:03:22.857Z,10
2017-09-17T04:04:22.849Z,10.06
2017-09-17T04:05:22.845Z,10.03
2017-09-17T04:06:23.153Z,10.13
2017-09-17T04:07:22.836Z,10.13
2017-09-17T04:08:22.829Z,10.06
2017-09-17T04:09:22.825Z,10.03
2017-09-17T04:10:22.501Z,9.95
2017-09-17T04:11:22.810Z,9.92
2017-09-17T04:12:23.119Z,9.97
2017-09-17T04:13:22.906Z,9.91
2017-09-17T04:14:22.893Z,9.94
2017-09-17T04:15:22.785Z,9.92
2017-09-17T04:16:23.091Z,9.95
2017-09-17T04:17:23.198Z,9.87
2017-09-17T04:18:23.078Z,9.97
2017-09-17T04:19:22.763Z,9.94
2017-09-17T04:20:23.271Z,9.97
2017-09-17T04:21:22.437Z,9.97
2017-09-17T04:22:23.054Z,9.91
2017-09-17T04:23:22.735Z,9.95
2017-09-17T04:24:22.421Z,9.92
2017-09-17T04:25:23.038Z,10.03
2017-09-17T04:26:23.033Z,10.05
2017-09-17T04:27:22.717Z,10.07
2017-09-17T04:28:22.527Z,10.1
2017-09-17T04:29:22.489Z,10.1
2017-09-17T04:30:22.697Z,10.12
2017-09-17T04:31:22.793Z,10.07
2017-09-17T04:32:22.998Z,10.15
2017-09-17T04:33:22.366Z,10.12
2017-09-17T04:34:22.672Z,10.17
2017-09-17T04:35:22.873Z,10.18
2017-09-17T04:36:23.070Z,10.2
2017-09-17T04:37:22.965Z,10.18
2017-09-17T04:38:22.648Z,10.12
2017-09-17T04:39:22.653Z,10.13
2017-09-17T04:40:22.949Z,10.05
2017-09-17T04:41:22.416Z,10.05
2017-09-17T04:42:22.623Z,10.03
2017-09-17T04:43:22.305Z,10.03
2017-09-17T04:44:22.927Z,10
2017-09-17T04:45:22.914Z,10.03
2017-09-17T04:46:22.286Z,10.05
2017-09-17T04:47:22.906Z,10.07
2017-09-17T04:48:22.898Z,10.07
2017-09-17T04:49:22.892Z,10.1
2017-09-17T04:50:22.260Z,10.13
2017-09-17T04:51:22.877Z,10.13
2017-09-17T04:52:22.566Z,10.12
2017-09-17T04:53:22.870Z,10.17
2017-09-17T04:54:22.863Z,10.15
2017-09-17T04:55:22.545Z,10.21
2017-09-17T04:56:22.856Z,10.18
2017-09-17T04:57:22.537Z,10.18
2017-09-17T04:58:22.525Z,10.2
2017-09-17T04:59:22.520Z,10.21
2017-09-17T05:00:22.829Z,10.18
2017-09-17T05:01:22.516Z,10.12
2017-09-17T05:02:22.287Z,10.1
2017-09-17T05:03:22.494Z,10.17
2017-09-17T05:04:22.276Z,10.21
2017-09-17T05:05:22.801Z,10.2
2017-09-17T05:06:22.164Z,10.27
2017-09-17T05:07:22.787Z,10.25
2017-09-17T05:08:22.151Z,10.31
2017-09-17T05:09:22.460Z,10.28
2017-09-17T05:10:22.461Z,10.27
2017-09-17T05:11:22.443Z,10.27
2017-09-17T05:12:22.125Z,10.25
2017-09-17T05:13:22.534Z,10.23
2017-09-17T05:14:22.436Z,10.21
2017-09-17T05:15:22.569Z,10.17
2017-09-17T05:16:22.733Z,10.17
2017-09-17T05:17:22.724Z,10.21
2017-09-17T05:18:22.503Z,10.13
2017-09-17T05:19:22.402Z,10.18
2017-09-17T05:20:22.704Z,10.17
2017-09-17T05:21:22.072Z,10.18
2017-09-17T05:22:22.375Z,10.21
2017-09-17T05:23:22.788Z,10.2
2017-09-17T05:24:22.690Z,10.17
2017-09-17T05:25:22.361Z,10.18
2017-09-17T05:26:22.042Z,10.18
2017-09-17T05:27:22.763Z,10.13
2017-09-17T05:28:22.342Z,10.03
2017-09-17T05:29:22.338Z,10.05
2017-09-17T05:30:22.429Z,10.07
2017-09-17T05:31:22.109Z,10.06
2017-09-17T05:32:22.413Z,9.94
2017-09-17T05:33:22.310Z,9.95
2017-09-17T05:34:22.407Z,9.91
2017-09-17T05:35:22.621Z,9.99
2017-09-17T05:36:22.080Z,9.95
2017-09-17T05:37:22.631Z,9.92
2017-09-17T05:38:22.069Z,9.92
2017-09-17T05:39:22.276Z,9.99
2017-09-17T05:40:22.269Z,10.02
2017-09-17T05:41:22.571Z,10.02
2017-09-17T05:42:22.254Z,10.02
2017-09-17T05:43:21.936Z,10.03
2017-09-17T05:44:22.345Z,10.06
2017-09-17T05:45:22.024Z,10.06
2017-09-17T05:46:22.228Z,10.1
2017-09-17T05:47:22.232Z,10.12
2017-09-17T05:48:22.222Z,10.2
2017-09-17T05:49:21.898Z,10.17
2017-09-17T05:50:22.209Z,10.18
2017-09-17T05:51:22.086Z,10.27
2017-09-17T05:52:21.981Z,10.28
2017-09-17T05:53:22.289Z,10.25
2017-09-17T05:54:22.185Z,10.38
2017-09-17T05:55:22.177Z,10.31
2017-09-17T05:56:22.481Z,10.27
2017-09-17T05:57:21.849Z,10.24
2017-09-17T05:58:21.945Z,10.27
2017-09-17T05:59:22.254Z,10.28
2017-09-17T06:00:22.459Z,10.28
2017-09-17T06:01:22.471Z,10.31
2017-09-17T06:02:22.445Z,10.25
2017-09-17T06:03:22.532Z,10.33
2017-09-17T06:04:22.118Z,10.3
2017-09-17T06:05:22.112Z,10.24
2017-09-17T06:06:22.105Z,10.38
2017-09-17T06:07:21.887Z,10.36
2017-09-17T06:08:21.777Z,10.33
2017-09-17T06:09:22.084Z,10.38
2017-09-17T06:10:22.184Z,10.25
2017-09-17T06:11:22.079Z,10.39
2017-09-17T06:12:22.068Z,10.36
2017-09-17T06:13:22.061Z,10.36
2017-09-17T06:14:22.154Z,10.41
2017-09-17T06:15:22.046Z,10.39
2017-09-17T06:16:22.354Z,10.51
2017-09-17T06:17:22.034Z,10.57
2017-09-17T06:18:22.033Z,10.57
2017-09-17T06:19:22.027Z,10.45
2017-09-17T06:20:22.021Z,10.49
2017-09-17T06:21:22.013Z,10.51
2017-09-17T06:22:22.003Z,10.53
2017-09-17T06:23:22.098Z,10.58
2017-09-17T06:24:22.309Z,10.58
2017-09-17T06:25:21.987Z,10.51
2017-09-17T06:26:21.983Z,10.53
2017-09-17T06:27:21.660Z,10.57
2017-09-17T06:28:21.967Z,10.61
2017-09-17T06:29:22.274Z,10.71
2017-09-17T06:30:22.523Z,10.62
2017-09-17T06:31:21.951Z,10.62
2017-09-17T06:32:21.948Z,10.67
2017-09-17T06:33:22.034Z,10.72
2017-09-17T06:34:21.932Z,10.79
2017-09-17T06:35:21.930Z,10.76
2017-09-17T06:36:21.605Z,10.76
2017-09-17T06:37:21.913Z,10.82
2017-09-17T06:38:22.009Z,10.86
2017-09-17T06:39:21.586Z,10.8
2017-09-17T06:40:21.898Z,10.76
2017-09-17T06:41:21.573Z,10.79
2017-09-17T06:42:21.981Z,10.8
2017-09-17T06:43:22.186Z,10.86
2017-09-17T06:44:21.873Z,10.82
2017-09-17T06:45:21.861Z,10.84
2017-09-17T06:46:21.858Z,10.77
2017-09-17T06:47:21.850Z,10.84
2017-09-17T06:48:21.534Z,10.92
2017-09-17T06:49:22.282Z,10.87
2017-09-17T06:50:22.144Z,10.89
2017-09-17T06:51:21.826Z,10.89
2017-09-17T06:52:22.235Z,10.79
2017-09-17T06:53:22.129Z,10.89
2017-09-17T06:54:21.910Z,10.84
2017-09-17T06:55:21.807Z,10.8
2017-09-17T06:56:21.793Z,10.89
2017-09-17T06:57:21.789Z,10.83
2017-09-17T06:58:21.470Z,10.87
2017-09-17T06:59:21.665Z,10.87
2017-09-17T07:00:22.081Z,10.79
2017-09-17T07:01:21.453Z,10.79
2017-09-17T07:02:21.446Z,10.77
2017-09-17T07:03:22.063Z,10.76
2017-09-17T07:04:21.744Z,10.79
2017-09-17T07:05:21.738Z,10.95
2017-09-17T07:06:21.622Z,10.94
2017-09-17T07:07:21.415Z,11
2017-09-17T07:08:22.042Z,11.08
2017-09-17T07:09:21.715Z,11.12
2017-09-17T07:10:22.122Z,11.18
2017-09-17T07:11:22.113Z,11.19
2017-09-17T07:12:21.694Z,11.31
2017-09-17T07:13:21.377Z,11.33
2017-09-17T07:14:21.684Z,11.3
2017-09-17T07:15:21.676Z,11.37
2017-09-17T07:16:21.769Z,11.37
2017-09-17T07:17:21.672Z,11.48
2017-09-17T07:18:21.660Z,11.41
2017-09-17T07:19:21.343Z,11.51
2017-09-17T07:20:21.746Z,11.49
2017-09-17T07:21:21.742Z,11.53
2017-09-17T07:22:21.733Z,11.52
2017-09-17T07:23:21.632Z,11.58
2017-09-17T07:24:21.941Z,11.6
2017-09-17T07:25:21.926Z,11.73
2017-09-17T07:26:21.613Z,11.83
2017-09-17T07:27:21.607Z,11.8
2017-09-17T07:28:21.285Z,11.78
2017-09-17T07:29:21.595Z,11.76
2017-09-17T07:30:21.904Z,11.65
2017-09-17T07:31:21.266Z,11.73
2017-09-17T07:32:21.571Z,11.67
2017-09-17T07:33:21.672Z,11.63
2017-09-17T07:34:21.563Z,11.53
2017-09-17T07:35:21.867Z,11.6
2017-09-17T07:36:21.865Z,11.63
2017-09-17T07:37:21.855Z,11.77
2017-09-17T07:38:21.850Z,11.74
2017-09-17T07:39:21.219Z,11.76
2017-09-17T07:40:21.522Z,11.81
2017-09-17T07:41:21.835Z,11.86
2017-09-17T07:42:21.515Z,11.83
2017-09-17T07:43:21.819Z,11.95
2017-09-17T07:44:21.191Z,12.08
2017-09-17T07:45:21.596Z,12.05
2017-09-17T07:46:21.489Z,11.96
2017-09-17T07:47:21.487Z,11.95
2017-09-17T07:48:21.925Z,11.95
2017-09-17T07:49:21.938Z,12
2017-09-17T07:50:21.786Z,11.96
2017-09-17T07:51:21.149Z,11.99
2017-09-17T07:52:21.142Z,11.97
2017-09-17T07:53:21.861Z,12.05
2017-09-17T07:54:21.134Z,11.95
2017-09-17T07:55:21.902Z,12
2017-09-17T07:56:21.428Z,11.93
2017-09-17T07:57:21.112Z,11.93
2017-09-17T07:58:21.727Z,11.88
2017-09-17T07:59:21.512Z,11.81
2017-09-17T08:00:21.507Z,11.78
2017-09-17T08:01:21.712Z,11.81
2017-09-17T08:02:21.709Z,11.83
2017-09-17T08:03:21.387Z,11.8
2017-09-17T08:04:21.385Z,11.83
2017-09-17T08:05:21.373Z,11.83
2017-09-17T08:06:21.685Z,11.74
2017-09-17T08:07:21.361Z,11.68
2017-09-17T08:08:21.361Z,11.68
2017-09-17T08:09:21.672Z,11.58
2017-09-17T08:10:21.348Z,11.58
2017-09-17T08:11:21.342Z,11.51
2017-09-17T08:12:21.336Z,11.56
2017-09-17T08:13:21.640Z,11.68
2017-09-17T08:14:21.331Z,11.73
2017-09-17T08:15:21.630Z,11.85
2017-09-17T08:16:21.310Z,12.02
2017-09-17T08:17:21.619Z,12.08
2017-09-17T08:18:21.625Z,12.29
2017-09-17T08:19:21.606Z,12.32
2017-09-17T08:20:21.283Z,12.33
2017-09-17T08:21:21.598Z,12.25
2017-09-17T08:22:21.593Z,12.28
2017-09-17T08:23:21.264Z,12.3
2017-09-17T08:24:21.263Z,12.32
2017-09-17T08:25:21.255Z,12.28
2017-09-17T08:26:21.667Z,12.33
2017-09-17T08:27:21.244Z,12.39
2017-09-17T08:28:21.029Z,12.47
2017-09-17T08:29:21.233Z,12.45
2017-09-17T08:30:21.226Z,12.44
2017-09-17T08:31:20.911Z,12.37
2017-09-17T08:32:21.213Z,12.37
2017-09-17T08:33:21.211Z,12.47
2017-09-17T08:34:20.888Z,12.4
2017-09-17T08:35:20.885Z,12.44
2017-09-17T08:36:21.192Z,12.37
2017-09-17T08:37:21.283Z,12.37
2017-09-17T08:38:21.591Z,12.45
2017-09-17T08:39:21.183Z,12.43
2017-09-17T08:40:21.483Z,12.4
2017-09-17T08:41:21.163Z,12.44
2017-09-17T08:42:21.471Z,12.47
2017-09-17T08:43:21.253Z,12.43
2017-09-17T08:44:21.459Z,12.45
2017-09-17T08:45:21.552Z,12.47
2017-09-17T08:46:21.136Z,12.43
2017-09-17T08:47:20.818Z,12.45
2017-09-17T08:48:21.126Z,12.5
2017-09-17T08:49:21.119Z,12.54
2017-09-17T08:50:21.419Z,12.68
2017-09-17T08:51:21.421Z,12.73
2017-09-17T08:52:21.197Z,12.87
2017-09-17T08:53:21.092Z,12.86
2017-09-17T08:54:21.400Z,12.84
2017-09-17T08:55:21.543Z,12.78
2017-09-17T08:56:21.485Z,12.88
2017-09-17T08:57:21.071Z,12.88
2017-09-17T08:58:21.065Z,12.99
2017-09-17T08:59:21.370Z,13.08
2017-09-17T09:00:20.738Z,13.16
2017-09-17T09:01:21.049Z,13.09
2017-09-17T09:02:21.142Z,12.95
2017-09-17T09:03:21.350Z,12.94
2017-09-17T09:04:20.816Z,12.91
2017-09-17T09:05:21.025Z,13.02
2017-09-17T09:06:21.328Z,12.99
2017-09-17T09:07:21.323Z,12.9
2017-09-17T09:08:21.321Z,12.86
2017-09-17T09:09:21.001Z,12.84
2017-09-17T09:10:20.681Z,12.72
2017-09-17T09:11:20.988Z,12.73
2017-09-17T09:12:21.495Z,12.83
2017-09-17T09:13:20.976Z,12.81
2017-09-17T09:14:20.968Z,12.84
2017-09-17T09:15:21.119Z,12.88
2017-09-17T09:16:20.960Z,12.83
2017-09-17T09:17:20.955Z,12.83
2017-09-17T09:18:21.268Z,12.84
2017-09-17T09:19:20.943Z,12.8
2017-09-17T09:20:20.942Z,12.86
2017-09-17T09:21:20.620Z,12.88
2017-09-17T09:22:20.923Z,12.99
2017-09-17T09:23:20.757Z,12.88
2017-09-17T09:24:21.333Z,12.9
2017-09-17T09:25:21.219Z,12.98
2017-09-17T09:26:20.902Z,12.98
2017-09-17T09:27:20.895Z,12.91
2017-09-17T09:28:20.675Z,12.99
2017-09-17T09:29:20.880Z,12.98
2017-09-17T09:30:21.291Z,12.99
2017-09-17T09:31:20.874Z,12.84
2017-09-17T09:32:20.552Z,12.76
2017-09-17T09:33:21.174Z,12.78
2017-09-17T09:34:21.363Z,12.7
2017-09-17T09:35:20.855Z,12.76
2017-09-17T09:36:20.632Z,12.75
2017-09-17T09:37:20.838Z,12.83
2017-09-17T09:38:21.145Z,12.8
2017-09-17T09:39:20.714Z,12.83
2017-09-17T09:40:20.820Z,12.83
2017-09-17T09:41:21.130Z,12.9
2017-09-17T09:42:21.118Z,12.98
2017-09-17T09:43:21.119Z,13.02
2017-09-17T09:44:20.486Z,12.93
2017-09-17T09:45:20.790Z,12.98
2017-09-17T09:46:21.093Z,12.94
2017-09-17T09:47:21.097Z,13.05
2017-09-17T09:48:21.194Z,13.06
2017-09-17T09:49:20.455Z,13.12
2017-09-17T09:50:21.071Z,13.19
2017-09-17T09:51:21.066Z,13.27
2017-09-17T09:52:20.439Z,13.2
2017-09-17T09:53:21.062Z,13.26
2017-09-17T09:54:20.839Z,13.24
2017-09-17T09:55:20.421Z,13.27
2017-09-17T09:56:20.824Z,13.26
2017-09-17T09:57:21.132Z,13.26
2017-09-17T09:58:20.722Z,13.21
2017-09-17T09:59:21.022Z,13.23
2017-09-17T10:00:20.391Z,13.26
2017-09-17T10:01:20.703Z,13.36
2017-09-17T10:02:21.006Z,13.46
2017-09-17T10:03:20.686Z,13.58
2017-09-17T10:04:20.369Z,13.49
2017-09-17T10:05:20.678Z,13.46
2017-09-17T10:06:20.982Z,13.45
2017-09-17T10:07:20.452Z,13.4
2017-09-17T10:08:20.662Z,13.55
2017-09-17T10:09:21.062Z,13.54
2017-09-17T10:10:20.962Z,13.57
2017-09-17T10:11:20.990Z,13.52
2017-09-17T10:12:21.060Z,13.55
2017-09-17T10:13:20.944Z,13.58
2017-09-17T10:14:20.937Z,13.49
2017-09-17T10:15:21.027Z,13.49
2017-09-17T10:16:20.298Z,13.31
2017-09-17T10:17:20.704Z,13.17
2017-09-17T10:18:20.701Z,13.26
2017-09-17T10:19:20.702Z,13.33
2017-09-17T10:20:20.690Z,13.26
2017-09-17T10:21:20.586Z,13.36
2017-09-17T10:22:20.578Z,13.45
2017-09-17T10:23:20.571Z,13.5
2017-09-17T10:24:20.568Z,13.55
2017-09-17T10:25:20.563Z,13.61
2017-09-17T10:26:20.870Z,13.67
2017-09-17T10:27:20.553Z,13.7
2017-09-17T10:28:20.233Z,13.67
2017-09-17T10:29:20.224Z,13.75
2017-09-17T10:30:20.638Z,13.75
2017-09-17T10:31:20.211Z,13.71
2017-09-17T10:32:20.530Z,13.68
2017-09-17T10:33:20.825Z,13.73
2017-09-17T10:34:20.822Z,13.86
2017-09-17T10:35:20.602Z,13.8
2017-09-17T10:36:20.495Z,13.94
2017-09-17T10:37:20.593Z,13.98
2017-09-17T10:38:20.801Z,14.05
2017-09-17T10:39:20.171Z,14.05
2017-09-17T10:40:20.475Z,14.13
2017-09-17T10:41:20.500Z,14.11
2017-09-17T10:42:20.148Z,14.19
2017-09-17T10:43:20.468Z,14.2
2017-09-17T10:44:20.141Z,14.19
2017-09-17T10:45:20.760Z,14.2
2017-09-17T10:46:20.227Z,14.23
2017-09-17T10:47:20.754Z,14.3
2017-09-17T10:48:20.529Z,14.37
2017-09-17T10:49:20.529Z,14.38
2017-09-17T10:50:20.727Z,14.3
2017-09-17T10:51:20.414Z,14.36
2017-09-17T10:52:20.195Z,14.31
2017-09-17T10:53:20.815Z,14.26
2017-09-17T10:54:20.819Z,14.44
2017-09-17T10:55:20.702Z,14.33
2017-09-17T10:56:20.700Z,14.48
2017-09-17T10:57:20.378Z,14.41
2017-09-17T10:58:20.377Z,14.49
2017-09-17T10:59:20.475Z,14.48
2017-09-17T11:00:20.052Z,14.55
2017-09-17T11:01:20.664Z,14.68
2017-09-17T11:02:20.037Z,14.66
2017-09-17T11:03:20.351Z,14.86
2017-09-17T11:04:20.125Z,14.92
2017-09-17T11:05:20.748Z,14.93
2017-09-17T11:06:20.020Z,14.99
2017-09-17T11:07:20.010Z,14.97
2017-09-17T11:08:20.318Z,14.92
2017-09-17T11:09:20.626Z,14.87
2017-09-17T11:10:20.305Z,14.93
2017-09-17T11:11:20.304Z,14.97
2017-09-17T11:12:20.296Z,15.08
2017-09-17T11:13:20.606Z,15.07
2017-09-17T11:14:20.284Z,15.08
2017-09-17T11:15:20.278Z,15.11
2017-09-17T11:16:20.587Z,15.08
2017-09-17T11:17:20.370Z,15.02
2017-09-17T11:18:20.460Z,15
2017-09-17T11:19:20.569Z,15.04
2017-09-17T11:20:20.035Z,15.08
2017-09-17T11:21:20.250Z,15.07
2017-09-17T11:22:20.564Z,15.08
2017-09-17T11:23:20.547Z,15.12
2017-09-17T11:24:20.226Z,15.14
2017-09-17T11:25:20.222Z,15.1
2017-09-17T11:26:19.903Z,15.14
2017-09-17T11:27:19.898Z,15.1
2017-09-17T11:28:20.306Z,15.22
2017-09-17T11:29:20.513Z,15.19
2017-09-17T11:30:20.511Z,15.19
2017-09-17T11:31:20.290Z,15.32
2017-09-17T11:32:20.184Z,15.39
2017-09-17T11:33:19.966Z,15.45
2017-09-17T11:34:20.482Z,15.44
2017-09-17T11:35:20.165Z,15.5
2017-09-17T11:36:19.853Z,15.45
2017-09-17T11:37:20.580Z,15.54
2017-09-17T11:38:20.147Z,15.63
2017-09-17T11:39:20.248Z,15.62
2017-09-17T11:40:20.137Z,15.75
2017-09-17T11:41:19.922Z,15.75
2017-09-17T11:42:19.820Z,15.69
2017-09-17T11:43:19.909Z,15.65
2017-09-17T11:44:19.804Z,15.6
2017-09-17T11:45:20.113Z,15.72
2017-09-17T11:46:20.106Z,15.76
2017-09-17T11:47:20.199Z,15.6
2017-09-17T11:48:20.195Z,15.52
2017-09-17T11:49:19.777Z,15.44
2017-09-17T11:50:20.084Z,15.45
2017-09-17T11:51:19.917Z,15.33
2017-09-17T11:52:20.075Z,15.41
2017-09-17T11:53:19.764Z,15.32
2017-09-17T11:54:19.852Z,15.35
2017-09-17T11:55:19.741Z,15.26
2017-09-17T11:56:20.049Z,15.27
2017-09-17T11:57:20.044Z,15.14
2017-09-17T11:58:20.356Z,15.12
2017-09-17T11:59:20.345Z,15.18
2017-09-17T12:00:20.130Z,15.05
2017-09-17T12:01:19.710Z,15.12
2017-09-17T12:02:20.017Z,15.12
2017-09-17T12:03:19.700Z,15.18
2017-09-17T12:04:19.794Z,15.14
2017-09-17T12:05:20.006Z,15.23
2017-09-17T12:06:19.994Z,15.27
2017-09-17T12:07:19.990Z,15.25
2017-09-17T12:08:20.295Z,15.35
2017-09-17T12:09:20.291Z,15.33
2017-09-17T12:10:20.385Z,15.45
2017-09-17T12:11:19.654Z,15.48
2017-09-17T12:12:19.999Z,15.6
2017-09-17T12:13:19.645Z,15.72
2017-09-17T12:14:19.736Z,15.62
2017-09-17T12:15:19.943Z,15.83
2017-09-17T12:16:19.941Z,15.75
2017-09-17T12:17:19.930Z,15.65
2017-09-17T12:18:19.619Z,15.72
2017-09-17T12:19:19.926Z,15.76
2017-09-17T12:20:20.017Z,15.76
2017-09-17T12:21:19.916Z,15.83
2017-09-17T12:22:19.912Z,15.83
2017-09-17T12:23:19.590Z,15.88
2017-09-17T12:24:20.208Z,15.9
2017-09-17T12:25:20.203Z,16
2017-09-17T12:26:19.891Z,16.09
2017-09-17T12:27:19.721Z,16.17
2017-09-17T12:28:19.873Z,16.21
2017-09-17T12:29:20.184Z,16.22
2017-09-17T12:30:20.183Z,16.36
2017-09-17T12:31:20.277Z,16.13
2017-09-17T12:32:19.953Z,16.25
2017-09-17T12:33:19.847Z,16.24
2017-09-17T12:34:19.942Z,16.34
2017-09-17T12:35:20.154Z,16.4
2017-09-17T12:36:20.147Z,16.5
2017-09-17T12:37:19.512Z,16.54
2017-09-17T12:38:19.974Z,16.58
2017-09-17T12:39:19.500Z,16.62
2017-09-17T12:40:19.496Z,16.68
2017-09-17T12:41:19.495Z,16.73
2017-09-17T12:42:20.213Z,16.76
2017-09-17T12:43:19.796Z,16.79
2017-09-17T12:44:19.478Z,16.89
2017-09-17T12:45:20.096Z,16.92
2017-09-17T12:46:20.102Z,16.86
2017-09-17T12:47:20.090Z,16.83
2017-09-17T12:48:19.768Z,16.98
2017-09-17T12:49:19.699Z,16.94
2017-09-17T12:50:19.443Z,17.02
2017-09-17T12:51:20.062Z,16.94
2017-09-17T12:52:20.057Z,16.99
2017-09-17T12:53:19.742Z,17.05
2017-09-17T12:54:20.047Z,17.02
2017-09-17T12:55:19.621Z,17.07
2017-09-17T12:56:19.414Z,17.01
2017-09-17T12:57:19.408Z,16.97